Weather History for Perryton, TX

Change the Weather History Date:

Wednesday, November 21, 2012

  Actual Average Record
Temperature  
Mean Temperature 55 °F -  
Max Temperature 75 °F 55 °F 76 °F (1989)
Min Temperature 35 °F 26 °F 13 °F (1977)
Degree Days  
Heating Degree Days 10    
Growing Degree Days 5 (Base 50)    
Moisture  
Dew Point 37 °F    
Average Humidity 51    
Maximum Humidity 87    
Minimum Humidity 21    
Precipitation  
Precipitation 0.00 in - - ()
Sea Level Pressure  
Sea Level Pressure 30.08 in    
Wind  
Wind Speed 13 mph (SSW)    
Max Wind Speed 28 mph    
Max Gust Speed 33 mph    
Visibility 10 miles    
Events      
Averages and records for this station are not official NWS values.
T = Trace of Precipitation, MM = Missing Value Source: NWS Daily Summary

Daily Weather History Graph

Daily Weather History Graph

Search for Another Location

Airport:

Trip Planner

Search our weather history database for the weather conditions in past years. The results will help you decide how hot, cold, wet, or windy it might be!

Date:

Astronomy

Nov. 21, 2012 Rise Set
Actual Time 7:26 AM CST 5:30 PM CST
Civil Twilight 6:59 AM CST 5:58 PM CST
Nautical Twilight 6:27 AM CST 6:30 PM CST
Astronomical Twilight 5:56 AM CST 7:00 PM CST
Moon 1:38 PM CST 12:58 AM CST
Length of Visible Light 10h 59m
Length of Day
10h 03m
First Quarter, 62% of the Moon is Illuminated
Nov 21
First Quarter
Nov 28
Full
Dec 6
Last Quarter
Dec 13
New
Dec 19
First Quarter

Hourly Weather History & Observations

Time (CST) Temp. Windchill Dew Point Humidity Pressure Visibility Wind Dir Wind Speed Gust Speed Precip Events Conditions
12:15 AM 42.8 °F 38.0 °F 32.0 °F 66% 30.21 in 10.0 mi South 8.1 mph - N/A   Clear
12:35 AM 41.0 °F 35.2 °F 32.0 °F 70% 30.20 in 10.0 mi SSE 9.2 mph - N/A   Clear
12:55 AM 44.6 °F 39.7 °F 33.8 °F 66% 30.19 in 10.0 mi South 9.2 mph - N/A   Clear
1:15 AM 42.8 °F 38.0 °F 33.8 °F 70% 30.19 in 10.0 mi South 8.1 mph - N/A   Clear
1:35 AM 42.8 °F 38.6 °F 33.8 °F 70% 30.19 in 10.0 mi South 6.9 mph - N/A   Clear
1:55 AM 41.0 °F 36.4 °F 32.0 °F 70% 30.18 in 10.0 mi South 6.9 mph - N/A   Clear
2:15 AM 37.4 °F 32.8 °F 32.0 °F 81% 30.18 in 10.0 mi South 5.8 mph - N/A   Clear
2:35 AM 37.4 °F 32.1 °F 32.0 °F 81% 30.19 in 10.0 mi SSW 6.9 mph - N/A   Clear
2:55 AM 37.4 °F 32.8 °F 32.0 °F 81% 30.18 in 10.0 mi SSW 5.8 mph - N/A   Clear
3:15 AM 35.6 °F 28.6 °F 32.0 °F 87% 30.18 in 10.0 mi South 9.2 mph - N/A   Clear
3:35 AM 41.0 °F 35.8 °F 35.6 °F 81% 30.17 in 10.0 mi South 8.1 mph - N/A   Clear
3:55 AM 37.4 °F 30.3 °F 33.8 °F 87% 30.17 in 10.0 mi SSW 10.4 mph - N/A   Clear
4:15 AM 41.0 °F 34.7 °F 35.6 °F 81% 30.17 in 10.0 mi SSW 10.4 mph - N/A   Clear
4:35 AM 41.0 °F 35.2 °F 35.6 °F 81% 30.17 in 10.0 mi SSW 9.2 mph - N/A   Clear
4:55 AM 39.2 °F 33.0 °F 35.6 °F 87% 30.17 in 10.0 mi South 9.2 mph - N/A   Clear
5:15 AM 41.0 °F 35.2 °F 35.6 °F 81% 30.17 in 10.0 mi South 9.2 mph - N/A   Clear
5:35 AM 39.2 °F 33.0 °F 35.6 °F 87% 30.17 in 10.0 mi SSW 9.2 mph - N/A   Clear
5:55 AM 42.8 °F 37.0 °F 35.6 °F 76% 30.17 in 10.0 mi South 10.4 mph - N/A   Clear
6:15 AM 44.6 °F 39.2 °F 37.4 °F 76% 30.17 in 10.0 mi South 10.4 mph - N/A   Clear
6:35 AM 44.6 °F 39.7 °F 37.4 °F 76% 30.16 in 10.0 mi South 9.2 mph - N/A   Clear
6:55 AM 44.6 °F 39.2 °F 37.4 °F 76% 30.17 in 10.0 mi SSW 10.4 mph - N/A   Clear
7:15 AM 42.8 °F 37.5 °F 35.6 °F 76% 30.17 in 10.0 mi SSW 9.2 mph - N/A   Clear
7:35 AM 42.8 °F 37.0 °F 35.6 °F 76% 30.17 in 10.0 mi SSW 10.4 mph - N/A   Clear
7:55 AM 42.8 °F 38.0 °F 35.6 °F 76% 30.17 in 10.0 mi South 8.1 mph - N/A   Clear
8:15 AM 44.6 °F 39.2 °F 35.6 °F 71% 30.18 in 10.0 mi SSW 10.4 mph - N/A   Clear
8:35 AM 46.4 °F 41.5 °F 35.6 °F 66% 30.18 in 10.0 mi SSW 10.4 mph - N/A   Clear
8:55 AM 50.0 °F - 35.6 °F 58% 30.18 in 10.0 mi SSW 11.5 mph - N/A   Clear
9:15 AM 53.6 °F - 33.8 °F 47% 30.17 in 10.0 mi SSW 13.8 mph 25.3 mph N/A   Clear
9:35 AM 57.2 °F - 33.8 °F 41% 30.17 in 10.0 mi SSW 18.4 mph - N/A   Clear
9:55 AM 59.0 °F - 32.0 °F 36% 30.17 in 10.0 mi SSW 20.7 mph 26.5 mph N/A   Clear
10:15 AM 60.8 °F - 32.0 °F 34% 30.17 in 10.0 mi SSW 19.6 mph 27.6 mph N/A   Clear
10:35 AM 62.6 °F - 32.0 °F 32% 30.16 in 10.0 mi SSW 25.3 mph - N/A   Clear
10:55 AM 62.6 °F - 32.0 °F 32% 30.15 in 10.0 mi SSW 19.6 mph 28.8 mph N/A   Clear
11:15 AM 64.4 °F - 32.0 °F 30% 30.15 in 10.0 mi SSW 20.7 mph 29.9 mph N/A   Clear
11:35 AM 68.0 °F - 32.0 °F 26% 30.14 in 10.0 mi SSW 23.0 mph 29.9 mph N/A   Clear
11:55 AM 69.8 °F - 32.0 °F 25% 30.12 in 10.0 mi SSW 23.0 mph 28.8 mph N/A   Clear
12:15 PM 71.6 °F - 32.0 °F 23% 30.11 in 10.0 mi SSW 21.9 mph 32.2 mph N/A   Clear
12:35 PM 71.6 °F - 32.0 °F 23% 30.09 in 10.0 mi SSW 23.0 mph 32.2 mph N/A   Clear
12:55 PM 73.4 °F - 32.0 °F 22% 30.08 in 10.0 mi SSW 26.5 mph 33.4 mph N/A   Clear
1:15 PM 73.4 °F - 32.0 °F 22% 30.07 in 10.0 mi SSW 26.5 mph 33.4 mph N/A   Clear
1:35 PM 73.4 °F - 32.0 °F 22% 30.06 in 10.0 mi SSW 26.5 mph 33.4 mph N/A   Clear
1:55 PM 75.2 °F - 32.0 °F 21% 30.05 in 10.0 mi SSW 24.2 mph 32.2 mph N/A   Clear
2:15 PM 75.2 °F - 32.0 °F 21% 30.04 in 10.0 mi SSW 27.6 mph 33.4 mph N/A   Clear
2:35 PM 75.2 °F - 32.0 °F 21% 30.03 in 10.0 mi SSW 24.2 mph 29.9 mph N/A   Clear
2:55 PM 73.4 °F - 33.8 °F 23% 30.02 in 10.0 mi SSW 26.5 mph 29.9 mph N/A   Clear
3:15 PM 73.4 °F - 35.6 °F 25% 30.01 in 10.0 mi SSW 23.0 mph 27.6 mph N/A   Clear
3:35 PM 73.4 °F - 37.4 °F 27% 30.01 in 10.0 mi SSW 24.2 mph 29.9 mph N/A   Clear
3:55 PM 73.4 °F - 37.4 °F 27% 30.00 in 10.0 mi SSW 23.0 mph 32.2 mph N/A   Clear
4:15 PM 71.6 °F - 37.4 °F 29% 30.00 in 10.0 mi South 20.7 mph 25.3 mph N/A   Clear
4:35 PM 69.8 °F - 37.4 °F 31% 30.00 in 10.0 mi South 20.7 mph 27.6 mph N/A   Clear
4:55 PM 69.8 °F - 39.2 °F 33% 29.99 in 10.0 mi South 19.6 mph - N/A   Clear
5:15 PM 68.0 °F - 39.2 °F 35% 29.98 in 10.0 mi South 16.1 mph 21.9 mph N/A   Clear
5:35 PM 68.0 °F - 41.0 °F 37% 29.98 in 10.0 mi South 18.4 mph - N/A   Clear
5:55 PM 68.0 °F - 41.0 °F 37% 29.98 in 10.0 mi South 17.3 mph 25.3 mph N/A   Clear
6:15 PM 66.2 °F - 41.0 °F 40% 29.98 in 10.0 mi South 17.3 mph - N/A   Clear
6:35 PM 66.2 °F - 42.8 °F 43% 29.98 in 10.0 mi South 16.1 mph 20.7 mph N/A   Clear
6:55 PM 64.4 °F - 42.8 °F 45% 29.98 in 10.0 mi South 15.0 mph - N/A   Clear
7:15 PM 66.2 °F - 42.8 °F 43% 29.98 in 10.0 mi South 15.0 mph - N/A   Clear
7:35 PM 66.2 °F - 42.8 °F 43% 29.98 in 10.0 mi South 16.1 mph 21.9 mph N/A   Clear
7:55 PM 68.0 °F - 42.8 °F 40% 29.98 in 10.0 mi South 19.6 mph 26.5 mph N/A   Clear
8:15 PM 66.2 °F - 42.8 °F 43% 29.98 in 10.0 mi South 18.4 mph 25.3 mph N/A   Clear
8:35 PM 66.2 °F - 42.8 °F 43% 29.98 in 10.0 mi South 19.6 mph 25.3 mph N/A   Clear
8:55 PM 66.2 °F - 42.8 °F 43% 29.97 in 10.0 mi South 21.9 mph 28.8 mph N/A   Clear
9:15 PM 64.4 °F - 42.8 °F 45% 29.97 in 10.0 mi South 19.6 mph 26.5 mph N/A   Clear
9:35 PM 64.4 °F - 42.8 °F 45% 29.97 in 10.0 mi South 24.2 mph 27.6 mph N/A   Clear
9:55 PM 64.4 °F - 42.8 °F 45% 29.97 in 10.0 mi South 23.0 mph 28.8 mph N/A   Clear
10:15 PM 62.6 °F - 42.8 °F 48% 29.96 in 10.0 mi South 19.6 mph 26.5 mph N/A   Clear
10:35 PM 62.6 °F - 44.6 °F 52% 29.95 in 10.0 mi South 17.3 mph - N/A   Clear
10:55 PM 62.6 °F - 44.6 °F 52% 29.94 in 10.0 mi South 19.6 mph 24.2 mph N/A   Clear
11:15 PM 60.8 °F - 42.8 °F 52% 29.94 in 10.0 mi South 17.3 mph 24.2 mph N/A   Clear
11:35 PM 60.8 °F - 42.8 °F 52% 29.94 in 10.0 mi South 20.7 mph 24.2 mph N/A   Clear
11:55 PM 60.8 °F - 44.6 °F 55% 29.93 in 10.0 mi SSW 18.4 mph - N/A   Clear